Time;durP1;ratioP1;P1;durP2;ratioP2;P2;SDS_P1;SDS_P2;PMS_P1;PMS_P2;Temp;Humidity;BMP_temperature;BMP_pressure;BME280_temperature;BME280_humidity;BME280_pressure;Samples;Min_cycle;Max_cycle;Signal;HPM_P1;HPM_P2
2022/05/15 00:01:18;;;;;;;0.57;0.38;;;;;;;;;;4982193;28;20044;-82
2022/05/15 00:03:43;;;;;;;1.35;0.93;;;;;;;;;;4968762;28;20046;-83
2022/05/15 00:06:08;;;;;;;2.03;0.70;;;;;;;;;;4984448;28;20045;-83
2022/05/15 00:08:36;;;;;;;0.77;0.40;;;;;;;;;;4983479;28;20050;-83
2022/05/15 00:11:03;;;;;;;0.45;0.40;;;;;;;;;;4969399;28;20046;-84
2022/05/15 00:13:29;;;;;;;2.22;0.98;;;;;;;;;;4968656;28;20041;-83
2022/05/15 00:15:55;;;;;;;2.60;0.95;;;;;;;;;;4984216;28;20034;-83
2022/05/15 00:18:21;;;;;;;1.35;0.77;;;;;;;;;;4973140;28;20038;-83
2022/05/15 00:20:47;;;;;;;1.13;0.47;;;;;;;;;;4968175;28;20034;-83
2022/05/15 00:23:13;;;;;;;1.40;1.00;;;;;;;;;;4970358;28;20101;-82
2022/05/15 00:25:40;;;;;;;0.70;0.40;;;;;;;;;;4984746;28;20084;-82
2022/05/15 00:28:06;;;;;;;0.93;0.50;;;;;;;;;;4969449;28;20560;-83
2022/05/15 00:30:32;;;;;;;0.38;0.38;;;;;;;;;;4972478;28;20057;-83
2022/05/15 00:33:00;;;;;;;0.60;0.43;;;;;;;;;;4967733;28;20383;-82
2022/05/15 00:35:26;;;;;;;1.30;0.75;;;;;;;;;;4967900;28;20049;-83
2022/05/15 00:37:51;;;;;;;1.17;0.60;;;;;;;;;;4968416;28;20453;-83
2022/05/15 00:40:19;;;;;;;1.48;0.73;;;;;;;;;;4968098;28;20398;-83
2022/05/15 00:42:44;;;;;;;1.73;0.82;;;;;;;;;;4959607;28;20571;-82
2022/05/15 00:45:10;;;;;;;1.92;0.85;;;;;;;;;;4968606;28;20065;-82
2022/05/15 00:47:36;;;;;;;0.38;0.35;;;;;;;;;;4967964;28;20815;-83
2022/05/15 00:50:11;;;;;;;1.63;0.82;;;;;;;;;;4984419;28;20035;-82
2022/05/15 00:52:38;;;;;;;1.30;0.35;;;;;;;;;;4967827;28;20430;-83
2022/05/15 00:55:16;;;;;;;0.75;0.47;;;;;;;;;;4968589;28;20034;-83
2022/05/15 00:57:54;;;;;;;2.25;0.57;;;;;;;;;;4968262;28;20172;-82
2022/05/15 01:00:22;;;;;;;0.75;0.57;;;;;;;;;;4959769;28;20587;-82
2022/05/15 01:02:59;;;;;;;1.38;0.88;;;;;;;;;;4973887;28;20060;-83
2022/05/15 01:05:25;;;;;;;1.83;0.88;;;;;;;;;;4982815;28;20042;-83
2022/05/15 01:07:50;;;;;;;0.45;0.40;;;;;;;;;;4968501;28;20052;-82
2022/05/15 01:10:16;;;;;;;5.20;1.25;;;;;;;;;;4983533;28;20070;-83
2022/05/15 01:12:42;;;;;;;0.60;0.40;;;;;;;;;;4968014;28;20494;-83
2022/05/15 01:15:10;;;;;;;0.75;0.50;;;;;;;;;;4977939;28;20111;-83
2022/05/15 01:17:35;;;;;;;1.73;0.70;;;;;;;;;;4972389;28;20034;-83
2022/05/15 01:20:05;;;;;;;8.32;1.65;;;;;;;;;;4970260;28;20045;-83
2022/05/15 01:22:30;;;;;;;4.55;1.23;;;;;;;;;;4973587;28;20089;-82
2022/05/15 01:24:56;;;;;;;0.63;0.40;;;;;;;;;;4968346;28;20453;-83
2022/05/15 01:27:21;;;;;;;2.30;1.38;;;;;;;;;;4966678;28;20561;-83
2022/05/15 01:29:46;;;;;;;1.30;0.88;;;;;;;;;;4973055;28;20066;-83
2022/05/15 01:32:12;;;;;;;0.43;0.20;;;;;;;;;;4967075;28;20030;-83
2022/05/15 01:34:38;;;;;;;0.65;0.47;;;;;;;;;;4983049;28;20113;-82
2022/05/15 01:37:04;;;;;;;0.88;0.70;;;;;;;;;;4999975;28;20064;-83
2022/05/15 01:39:30;;;;;;;1.23;0.75;;;;;;;;;;4983168;28;20049;-83
2022/05/15 01:41:56;;;;;;;0.40;0.30;;;;;;;;;;4982694;28;20154;-83
2022/05/15 01:44:21;;;;;;;0.60;0.50;;;;;;;;;;4984544;28;20031;-83
2022/05/15 01:46:48;;;;;;;2.05;1.33;;;;;;;;;;4971005;28;20038;-82
2022/05/15 01:49:15;;;;;;;2.20;0.52;;;;;;;;;;4987193;28;20035;-82
2022/05/15 01:51:41;;;;;;;3.58;1.27;;;;;;;;;;4986810;28;20121;-82
2022/05/15 01:54:07;;;;;;;0.22;0.22;;;;;;;;;;4988274;28;20520;-82
2022/05/15 01:56:32;;;;;;;1.90;0.88;;;;;;;;;;4987362;28;20043;-83
2022/05/15 01:58:58;;;;;;;1.23;0.47;;;;;;;;;;4971955;28;20039;-83
2022/05/15 02:01:26;;;;;;;1.67;0.93;;;;;;;;;;4974498;28;20034;-82
2022/05/15 02:03:51;;;;;;;1.27;0.57;;;;;;;;;;4988348;28;20045;-82
2022/05/15 02:06:17;;;;;;;0.60;0.47;;;;;;;;;;4975317;28;20034;-82
2022/05/15 02:08:42;;;;;;;1.17;0.68;;;;;;;;;;4978959;28;20045;-83
2022/05/15 02:11:08;;;;;;;1.40;0.47;;;;;;;;;;4974481;28;20037;-83
2022/05/15 02:13:34;;;;;;;0.80;0.60;;;;;;;;;;4979702;28;20057;-82
2022/05/15 02:15:59;;;;;;;2.08;0.82;;;;;;;;;;4974011;28;20127;-82
2022/05/15 02:18:25;;;;;;;1.38;0.75;;;;;;;;;;4977187;28;20045;-82
2022/05/15 02:20:50;;;;;;;1.02;0.75;;;;;;;;;;4978010;28;20567;-82
2022/05/15 02:23:15;;;;;;;0.45;0.32;;;;;;;;;;4975019;28;20045;-82
2022/05/15 02:25:41;;;;;;;1.27;0.75;;;;;;;;;;4973848;28;20038;-82
2022/05/15 02:28:07;;;;;;;0.75;0.55;;;;;;;;;;4976958;28;20113;-82
2022/05/15 02:30:33;;;;;;;0.75;0.63;;;;;;;;;;4964643;28;20045;-82
2022/05/15 02:32:58;;;;;;;0.30;0.30;;;;;;;;;;4974483;28;20044;-82
2022/05/15 02:35:23;;;;;;;1.10;0.80;;;;;;;;;;4989797;28;20101;-83
2022/05/15 02:37:49;;;;;;;0.80;0.52;;;;;;;;;;4978874;28;20033;-82
2022/05/15 02:40:20;;;;;;;0.38;0.38;;;;;;;;;;4978327;28;20034;-83
2022/05/15 02:42:46;;;;;;;0.35;0.30;;;;;;;;;;4989921;28;20485;-83
2022/05/15 02:45:12;;;;;;;3.20;0.88;;;;;;;;;;4978774;28;20038;-83
2022/05/15 02:47:37;;;;;;;1.23;0.68;;;;;;;;;;4978539;28;20830;-83
2022/05/15 02:52:48;;;;;;;0.60;0.55;;;;;;;;;;4986304;28;20045;-82
2022/05/15 02:55:13;;;;;;;0.77;0.70;;;;;;;;;;4976983;28;20038;-82
2022/05/15 02:57:41;;;;;;;0.90;0.75;;;;;;;;;;4974086;28;20049;-82
2022/05/15 03:00:09;;;;;;;0.52;0.30;;;;;;;;;;4975521;28;20072;-82
2022/05/15 03:02:36;;;;;;;0.28;0.28;;;;;;;;;;4990055;28;20049;-82
2022/05/15 03:05:01;;;;;;;0.70;0.40;;;;;;;;;;4975791;28;20042;-82
2022/05/15 03:07:26;;;;;;;4.22;1.20;;;;;;;;;;4969888;28;20089;-83
2022/05/15 03:09:52;;;;;;;0.63;0.43;;;;;;;;;;4973336;28;20082;-83
2022/05/15 03:12:17;;;;;;;0.55;0.47;;;;;;;;;;4969552;28;20045;-83
2022/05/15 03:14:42;;;;;;;1.73;0.77;;;;;;;;;;4986344;28;20485;-82
2022/05/15 03:17:08;;;;;;;0.55;0.47;;;;;;;;;;4970039;28;20466;-82
2022/05/15 03:19:33;;;;;;;0.40;0.30;;;;;;;;;;4970844;28;20148;-82
2022/05/15 03:21:58;;;;;;;0.73;0.50;;;;;;;;;;4982852;28;20046;-82
2022/05/15 03:24:23;;;;;;;1.13;0.80;;;;;;;;;;4969875;28;20551;-82
2022/05/15 03:26:49;;;;;;;1.63;0.90;;;;;;;;;;4970103;28;20046;-82
2022/05/15 03:29:18;;;;;;;0.73;0.55;;;;;;;;;;4975999;28;20054;-82
2022/05/15 03:31:43;;;;;;;2.60;0.75;;;;;;;;;;4958738;28;20038;-82
2022/05/15 03:34:11;;;;;;;0.47;0.40;;;;;;;;;;4985798;28;20486;-82
2022/05/15 03:36:38;;;;;;;1.73;1.00;;;;;;;;;;4969903;28;20085;-82
2022/05/15 03:39:06;;;;;;;0.30;0.30;;;;;;;;;;4969507;28;20045;-82
2022/05/15 03:41:32;;;;;;;1.02;0.70;;;;;;;;;;4976058;28;20085;-82
2022/05/15 03:43:57;;;;;;;1.13;0.43;;;;;;;;;;4973449;28;20041;-82
2022/05/15 03:46:22;;;;;;;1.42;1.15;;;;;;;;;;4969462;28;20039;-81
2022/05/15 03:48:48;;;;;;;0.40;0.40;;;;;;;;;;4969530;28;20846;-81
2022/05/15 03:51:13;;;;;;;1.10;0.65;;;;;;;;;;4969323;28;20124;-82
2022/05/15 03:53:38;;;;;;;0.50;0.40;;;;;;;;;;4972294;28;20038;-82
2022/05/15 03:56:04;;;;;;;0.25;0.25;;;;;;;;;;4974377;28;20031;-82
2022/05/15 03:58:31;;;;;;;0.88;0.55;;;;;;;;;;4984703;28;20122;-82
2022/05/15 04:00:57;;;;;;;0.28;0.28;;;;;;;;;;4969039;28;20440;-81
2022/05/15 04:03:22;;;;;;;1.35;0.75;;;;;;;;;;4969802;28;20062;-81
2022/05/15 04:05:48;;;;;;;0.95;0.50;;;;;;;;;;4968048;28;20457;-81
2022/05/15 04:08:14;;;;;;;0.52;0.40;;;;;;;;;;4983079;28;20108;-82
2022/05/15 04:10:39;;;;;;;1.90;1.05;;;;;;;;;;4984755;28;20039;-82
2022/05/15 04:13:05;;;;;;;0.40;0.30;;;;;;;;;;4970118;28;20049;-83
2022/05/15 04:15:31;;;;;;;0.40;0.30;;;;;;;;;;4984779;28;20054;-82
2022/05/15 04:17:57;;;;;;;0.40;0.30;;;;;;;;;;4968094;28;20097;-81
2022/05/15 04:20:26;;;;;;;2.72;0.60;;;;;;;;;;4969774;28;20038;-81
2022/05/15 04:22:51;;;;;;;0.17;0.17;;;;;;;;;;4984942;28;20125;-81
2022/05/15 04:25:17;;;;;;;0.40;0.30;;;;;;;;;;4984867;28;20157;-81
2022/05/15 04:27:43;;;;;;;0.85;0.60;;;;;;;;;;4983305;28;20038;-82
2022/05/15 04:30:10;;;;;;;1.70;0.70;;;;;;;;;;4969044;28;20480;-81
2022/05/15 04:32:36;;;;;;;1.40;0.93;;;;;;;;;;4968951;28;20126;-82
2022/05/15 04:35:05;;;;;;;1.50;0.50;;;;;;;;;;4983212;28;20481;-82
2022/05/15 04:37:30;;;;;;;1.70;1.00;;;;;;;;;;4967310;28;20136;-81
2022/05/15 04:39:56;;;;;;;0.52;0.32;;;;;;;;;;4968739;28;20743;-82
2022/05/15 04:42:21;;;;;;;0.75;0.60;;;;;;;;;;4970776;28;20054;-81
2022/05/15 04:44:46;;;;;;;0.68;0.45;;;;;;;;;;4961526;28;20138;-81
2022/05/15 04:47:13;;;;;;;0.40;0.30;;;;;;;;;;4968086;28;20374;-81
2022/05/15 04:49:38;;;;;;;0.50;0.30;;;;;;;;;;4968696;28;20042;-81
2022/05/15 04:52:04;;;;;;;0.65;0.52;;;;;;;;;;4971137;28;20844;-81
2022/05/15 04:54:29;;;;;;;3.22;1.35;;;;;;;;;;4982692;28;20042;-81
2022/05/15 04:56:57;;;;;;;0.65;0.60;;;;;;;;;;4983601;28;20088;-82
2022/05/15 04:59:23;;;;;;;0.20;0.20;;;;;;;;;;4968086;28;20060;-81
2022/05/15 05:01:48;;;;;;;0.13;0.10;;;;;;;;;;4967786;28;20035;-82
2022/05/15 05:04:13;;;;;;;0.30;0.30;;;;;;;;;;4982695;28;20046;-81
2022/05/15 05:06:39;;;;;;;0.85;0.43;;;;;;;;;;4968124;28;20041;-81
2022/05/15 05:09:04;;;;;;;0.28;0.28;;;;;;;;;;4968989;28;20038;-81
2022/05/15 05:11:29;;;;;;;0.30;0.30;;;;;;;;;;4966771;28;20057;-82
2022/05/15 05:13:55;;;;;;;0.32;0.30;;;;;;;;;;4983821;28;20038;-81
2022/05/15 05:16:20;;;;;;;0.55;0.50;;;;;;;;;;4967806;28;20022;-81
2022/05/15 05:18:46;;;;;;;0.35;0.20;;;;;;;;;;4969899;28;20093;-81
2022/05/15 05:21:11;;;;;;;0.30;0.10;;;;;;;;;;4967977;28;20068;-81
2022/05/15 05:23:36;;;;;;;1.58;0.70;;;;;;;;;;4968196;28;20046;-81
2022/05/15 05:26:04;;;;;;;6.55;0.63;;;;;;;;;;4971714;28;20050;-81
2022/05/15 05:28:32;;;;;;;0.70;0.52;;;;;;;;;;4981255;28;20863;-82
2022/05/15 05:30:58;;;;;;;;;;;;;;;;;;4985458;28;20042;-82
2022/05/15 05:33:24;;;;;;;0.63;0.43;;;;;;;;;;4975356;28;20395;-81
2022/05/15 05:35:50;;;;;;;0.55;0.28;;;;;;;;;;4967767;28;20437;-82
2022/05/15 05:38:15;;;;;;;0.55;0.40;;;;;;;;;;4983852;28;20031;-81
2022/05/15 05:40:41;;;;;;;0.05;0.05;;;;;;;;;;4966756;28;20038;-80
2022/05/15 05:43:06;;;;;;;0.38;0.22;;;;;;;;;;4984077;28;20038;-82
2022/05/15 05:45:32;;;;;;;0.60;0.32;;;;;;;;;;4982784;28;20854;-80
2022/05/15 05:47:57;;;;;;;0.25;0.20;;;;;;;;;;4967657;28;20034;-81
2022/05/15 05:50:24;;;;;;;0.20;0.20;;;;;;;;;;4966828;28;20042;-80
2022/05/15 05:52:50;;;;;;;0.22;0.15;;;;;;;;;;4963192;28;20042;-80
2022/05/15 05:55:17;;;;;;;1.70;0.60;;;;;;;;;;4967848;28;20066;-81
2022/05/15 05:57:43;;;;;;;0.20;0.10;;;;;;;;;;4968965;28;20401;-81
2022/05/15 06:00:12;;;;;;;0.10;0.10;;;;;;;;;;4984279;28;20038;-82
2022/05/15 06:02:38;;;;;;;0.43;0.30;;;;;;;;;;4983552;28;20413;-83
2022/05/15 06:05:03;;;;;;;0.95;0.50;;;;;;;;;;4968027;28;20034;-80
2022/05/15 06:07:30;;;;;;;0.25;0.25;;;;;;;;;;4966362;28;20390;-81
2022/05/15 06:09:59;;;;;;;0.20;0.20;;;;;;;;;;4981163;28;20486;-82
2022/05/15 06:12:24;;;;;;;0.10;0.10;;;;;;;;;;4983676;28;20165;-83
2022/05/15 06:14:51;;;;;;;0.10;0.10;;;;;;;;;;4968384;28;20511;-78
2022/05/15 06:17:27;;;;;;;0.30;0.30;;;;;;;;;;4967092;28;20065;-79
2022/05/15 06:19:53;;;;;;;0.30;0.20;;;;;;;;;;4984601;28;20034;-79
2022/05/15 06:22:18;;;;;;;0.25;0.20;;;;;;;;;;4968144;28;20050;-77
2022/05/15 06:24:44;;;;;;;0.10;0.10;;;;;;;;;;4984126;28;20062;-79
2022/05/15 06:27:10;;;;;;;0.45;0.22;;;;;;;;;;4966883;28;20030;-79
2022/05/15 06:29:37;;;;;;;0.10;0.10;;;;;;;;;;4985350;28;20493;-78
2022/05/15 06:32:02;;;;;;;0.83;0.33;;;;;;;;;;4969946;28;20046;-79
2022/05/15 06:34:27;;;;;;;0.75;0.47;;;;;;;;;;4970663;28;20042;-79
2022/05/15 06:36:53;;;;;;;0.10;0.10;;;;;;;;;;4972045;28;20041;-79
2022/05/15 06:39:18;;;;;;;3.47;0.40;;;;;;;;;;4968615;28;20494;-80
2022/05/15 06:41:46;;;;;;;0.13;0.13;;;;;;;;;;4983878;28;20034;-80
2022/05/15 06:44:11;;;;;;;0.00;0.00;;;;;;;;;;4986346;28;20626;-84
2022/05/15 06:46:36;;;;;;;0.20;0.10;;;;;;;;;;4970656;28;20121;-82
2022/05/15 06:49:02;;;;;;;0.75;0.30;;;;;;;;;;4970269;28;20038;-80
2022/05/15 06:51:27;;;;;;;0.28;0.15;;;;;;;;;;4984645;28;20121;-81
2022/05/15 06:53:53;;;;;;;0.30;0.20;;;;;;;;;;4970510;28;20030;-81
2022/05/15 06:59:05;;;;;;;0.33;0.20;;;;;;;;;;4979237;28;20041;-83
2022/05/15 07:01:31;;;;;;;0.10;0.10;;;;;;;;;;4981373;28;20278;-82
2022/05/15 07:03:56;;;;;;;0.45;0.22;;;;;;;;;;4973428;28;20068;-80
2022/05/15 07:06:21;;;;;;;0.08;0.03;;;;;;;;;;4976750;28;20590;-83
2022/05/15 07:08:48;;;;;;;0.88;0.20;;;;;;;;;;4983322;28;20104;-83
2022/05/15 07:11:13;;;;;;;0.20;0.17;;;;;;;;;;4984209;28;20481;-83
2022/05/15 07:13:39;;;;;;;0.52;0.30;;;;;;;;;;4973520;28;20128;-80
2022/05/15 07:16:05;;;;;;;0.00;0.00;;;;;;;;;;4974848;28;20493;-84
2022/05/15 07:18:31;;;;;;;0.20;0.10;;;;;;;;;;4976938;28;20120;-85
2022/05/15 07:20:56;;;;;;;0.20;0.05;;;;;;;;;;4988211;28;20044;-80
2022/05/15 07:23:22;;;;;;;0.15;0.10;;;;;;;;;;4966857;28;20038;-82
2022/05/15 07:25:49;;;;;;;0.65;0.30;;;;;;;;;;4975429;28;20037;-82
2022/05/15 07:28:14;;;;;;;0.73;0.30;;;;;;;;;;4988426;28;20045;-83
2022/05/15 07:30:40;;;;;;;2.40;0.75;;;;;;;;;;4987419;28;20045;-83
2022/05/15 07:33:06;;;;;;;1.85;0.82;;;;;;;;;;4972676;28;20065;-82
2022/05/15 07:35:32;;;;;;;5.00;0.68;;;;;;;;;;4977853;28;20120;-81
2022/05/15 07:37:57;;;;;;;0.82;0.32;;;;;;;;;;4977020;28;20583;-84
2022/05/15 07:40:22;;;;;;;0.00;0.00;;;;;;;;;;4988249;28;20103;-83
2022/05/15 07:42:48;;;;;;;0.00;0.00;;;;;;;;;;4971777;28;20501;-81
2022/05/15 07:45:14;;;;;;;0.47;0.22;;;;;;;;;;4973460;28;20034;-82
2022/05/15 07:47:40;;;;;;;0.13;0.10;;;;;;;;;;4972332;28;20053;-82
2022/05/15 07:50:07;;;;;;;1.33;0.55;;;;;;;;;;4971234;28;20037;-85
2022/05/15 07:52:32;;;;;;;0.20;0.10;;;;;;;;;;4971484;28;20038;-81
2022/05/15 07:54:57;;;;;;;1.40;0.50;;;;;;;;;;4988660;28;20037;-84
2022/05/15 07:57:23;;;;;;;1.27;0.30;;;;;;;;;;4972783;28;20441;-83
2022/05/15 07:59:48;;;;;;;0.20;0.00;;;;;;;;;;4989188;28;20227;-83
2022/05/15 08:02:14;;;;;;;0.63;0.28;;;;;;;;;;4986342;28;20119;-84
2022/05/15 08:10:10;;;;;;;0.00;0.00;;;;;;;;;;4985454;28;20401;-83
2022/05/15 08:12:35;;;;;;;0.77;0.30;;;;;;;;;;4973739;28;20045;-82
2022/05/15 08:15:02;;;;;;;0.50;0.20;;;;;;;;;;4968633;28;20038;-85
2022/05/15 08:17:27;;;;;;;0.00;0.00;;;;;;;;;;4967987;28;20030;-84
2022/05/15 08:25:20;;;;;;;0.30;0.10;;;;;;;;;;4982916;28;20061;-84
2022/05/15 08:27:45;;;;;;;0.13;0.08;;;;;;;;;;4980599;28;20034;-81
2022/05/15 08:30:11;;;;;;;0.52;0.20;;;;;;;;;;4968687;28;20410;-84
2022/05/15 08:32:36;;;;;;;0.08;0.05;;;;;;;;;;4967762;28;20057;-82
2022/05/15 08:35:02;;;;;;;0.20;0.10;;;;;;;;;;4968192;28;20046;-84
2022/05/15 08:37:27;;;;;;;0.10;0.08;;;;;;;;;;4967337;28;20572;-81
2022/05/15 08:39:59;;;;;;;0.52;0.20;;;;;;;;;;4982031;28;20057;-84
2022/05/15 08:42:54;;;;;;;0.00;0.00;;;;;;;;;;4983420;28;20030;-82
2022/05/15 08:45:20;;;;;;;0.30;0.17;;;;;;;;;;4982958;28;20042;-83
2022/05/15 08:47:47;;;;;;;0.35;0.10;;;;;;;;;;4967588;28;20045;-84
2022/05/15 08:50:17;;;;;;;0.00;0.00;;;;;;;;;;4983937;28;20081;-82
2022/05/15 08:52:54;;;;;;;1.55;0.60;;;;;;;;;;4969128;28;20034;-85
2022/05/15 08:55:32;;;;;;;0.20;0.10;;;;;;;;;;4967970;28;20034;-84
2022/05/15 08:58:04;;;;;;;0.00;0.00;;;;;;;;;;4967507;28;20029;-85
2022/05/15 09:00:35;;;;;;;0.55;0.30;;;;;;;;;;4982430;28;20042;-85
2022/05/15 09:03:21;;;;;;;2.85;0.20;;;;;;;;;;4968443;28;20046;-88
2022/05/15 09:05:59;;;;;;;0.03;0.00;;;;;;;;;;4967466;28;20042;-84
2022/05/15 09:08:25;;;;;;;0.00;0.00;;;;;;;;;;4967649;28;20049;-83
2022/05/15 09:10:58;;;;;;;0.10;0.00;;;;;;;;;;4987722;28;20077;-82
2022/05/15 09:13:45;;;;;;;0.08;0.03;;;;;;;;;;4960056;28;20034;-84
2022/05/15 09:16:17;;;;;;;0.15;0.05;;;;;;;;;;4983027;28;20125;-83
2022/05/15 09:18:42;;;;;;;0.40;0.13;;;;;;;;;;4965318;28;20046;-82
2022/05/15 09:21:11;;;;;;;0.32;0.10;;;;;;;;;;4971424;28;20038;-82
2022/05/15 09:23:51;;;;;;;0.20;0.00;;;;;;;;;;4977598;28;20038;-85
2022/05/15 09:26:16;;;;;;;0.40;0.25;;;;;;;;;;4962389;28;20041;-84
2022/05/15 09:28:53;;;;;;;0.00;0.00;;;;;;;;;;4984119;28;20039;-87
2022/05/15 09:31:28;;;;;;;;;;;;;;;;;;4965331;28;20608;-86
2022/05/15 09:34:04;;;;;;;0.00;0.00;;;;;;;;;;4976642;28;20644;-85
2022/05/15 09:36:35;;;;;;;0.45;0.10;;;;;;;;;;4957218;28;20049;-85
2022/05/15 09:39:14;;;;;;;0.10;0.03;;;;;;;;;;4983868;28;20046;-85
2022/05/15 09:44:25;;;;;;;0.55;0.15;;;;;;;;;;4983932;28;20085;-85
2022/05/15 09:47:15;;;;;;;0.30;0.10;;;;;;;;;;4984295;28;20426;-86
2022/05/15 09:49:42;;;;;;;1.00;0.00;;;;;;;;;;4998755;28;20038;-87
2022/05/15 09:52:12;;;;;;;0.70;0.20;;;;;;;;;;4966293;28;20052;-88
2022/05/15 09:54:38;;;;;;;0.30;0.13;;;;;;;;;;4957234;28;20042;-87
2022/05/15 09:57:23;;;;;;;0.03;0.03;;;;;;;;;;4982955;28;20441;-87
2022/05/15 09:59:57;;;;;;;0.00;0.00;;;;;;;;;;4967414;28;20084;-84
2022/05/15 10:02:44;;;;;;;0.30;0.10;;;;;;;;;;4973258;28;20038;-86
2022/05/15 10:05:16;;;;;;;0.55;0.28;;;;;;;;;;4999077;28;20049;-87
2022/05/15 10:07:50;;;;;;;0.17;0.08;;;;;;;;;;4986510;28;20113;-84
2022/05/15 10:10:21;;;;;;;0.00;0.00;;;;;;;;;;4971869;28;20572;-84
2022/05/15 10:12:52;;;;;;;0.03;0.00;;;;;;;;;;4980231;28;20042;-85
2022/05/15 10:15:18;;;;;;;0.10;0.08;;;;;;;;;;4986700;28;20441;-84
2022/05/15 10:17:50;;;;;;;0.00;0.00;;;;;;;;;;4971303;28;20100;-85
2022/05/15 10:20:29;;;;;;;0.10;0.00;;;;;;;;;;4984427;28;20038;-84
2022/05/15 10:23:12;;;;;;;0.13;0.00;;;;;;;;;;4980718;28;20043;-87
2022/05/15 10:25:43;;;;;;;0.10;0.00;;;;;;;;;;4979603;28;20030;-87
2022/05/15 10:28:27;;;;;;;0.03;0.00;;;;;;;;;;5005139;28;20604;-90
2022/05/15 10:31:06;;;;;;;0.30;0.13;;;;;;;;;;4978712;28;20429;-88
2022/05/15 10:33:36;;;;;;;0.75;0.20;;;;;;;;;;4973057;28;20070;-83
2022/05/15 10:36:41;;;;;;;0.00;0.00;;;;;;;;;;4971751;28;20082;-84
2022/05/15 10:39:16;;;;;;;0.28;0.08;;;;;;;;;;4987344;28;20125;-86
2022/05/15 10:41:54;;;;;;;0.90;0.28;;;;;;;;;;4978829;28;20397;-84
2022/05/15 10:44:39;;;;;;;0.00;0.00;;;;;;;;;;4978311;28;20034;-86
2022/05/15 10:47:12;;;;;;;0.10;0.10;;;;;;;;;;4987289;28;20038;-84
2022/05/15 10:49:54;;;;;;;0.00;0.00;;;;;;;;;;4986637;28;20037;-84
2022/05/15 10:52:38;;;;;;;0.10;0.10;;;;;;;;;;4969486;28;20054;-83
2022/05/15 10:58:13;;;;;;;0.00;0.00;;;;;;;;;;4987242;28;20049;-85
2022/05/15 11:00:49;;;;;;;0.05;0.00;;;;;;;;;;4985371;28;20073;-84
2022/05/15 11:03:45;;;;;;;0.00;0.00;;;;;;;;;;4986583;28;20108;-81
2022/05/15 11:06:31;;;;;;;1.10;0.35;;;;;;;;;;4975619;28;20048;-86
2022/05/15 11:09:06;;;;;;;;;;;;;;;;;;4979718;28;20053;-87
2022/05/15 11:11:49;;;;;;;0.57;0.25;;;;;;;;;;4991496;28;19925;-86
2022/05/15 11:14:22;;;;;;;0.63;0.20;;;;;;;;;;4985348;28;20041;-86
2022/05/15 11:17:21;;;;;;;0.10;0.00;;;;;;;;;;4984914;28;20030;-86
2022/05/15 11:19:46;;;;;;;0.00;0.00;;;;;;;;;;5001483;28;20130;-86
2022/05/15 11:22:26;;;;;;;0.00;0.00;;;;;;;;;;4982709;28;20470;-83
2022/05/15 11:24:58;;;;;;;0.30;0.17;;;;;;;;;;4969410;28;20041;-86
2022/05/15 11:27:29;;;;;;;0.30;0.10;;;;;;;;;;4985164;28;20145;-86
2022/05/15 11:29:57;;;;;;;0.47;0.20;;;;;;;;;;4969792;28;20761;-88
2022/05/15 11:32:45;;;;;;;0.60;0.28;;;;;;;;;;4967630;28;20096;-88
2022/05/15 11:35:17;;;;;;;0.10;0.03;;;;;;;;;;4977484;28;20034;-86
2022/05/15 11:38:01;;;;;;;1.25;0.35;;;;;;;;;;5000143;28;20394;-84
2022/05/15 11:40:48;;;;;;;0.00;0.00;;;;;;;;;;4967979;28;20034;-86
2022/05/15 11:43:28;;;;;;;0.08;0.00;;;;;;;;;;4973215;28;20110;-83
2022/05/15 11:45:54;;;;;;;1.00;0.15;;;;;;;;;;4986668;28;20065;-82
2022/05/15 11:48:22;;;;;;;0.00;0.00;;;;;;;;;;4987278;28;20072;-82
2022/05/15 11:50:57;;;;;;;0.22;0.03;;;;;;;;;;4984635;28;20709;-82
2022/05/15 11:53:32;;;;;;;0.00;0.00;;;;;;;;;;4985808;28;20034;-83
2022/05/15 11:55:59;;;;;;;0.85;0.10;;;;;;;;;;4968532;28;20038;-85
2022/05/15 11:58:33;;;;;;;0.32;0.10;;;;;;;;;;4969641;28;20050;-83
2022/05/15 12:01:08;;;;;;;0.22;0.05;;;;;;;;;;4975401;28;20062;-83
2022/05/15 12:03:34;;;;;;;0.57;0.20;;;;;;;;;;4975688;28;20030;-82
2022/05/15 12:06:07;;;;;;;0.20;0.10;;;;;;;;;;4973348;28;20065;-77
2022/05/15 12:08:35;;;;;;;0.20;0.10;;;;;;;;;;4970485;28;20042;-77
2022/05/15 12:11:28;;;;;;;0.38;0.13;;;;;;;;;;4958414;28;20057;-79
2022/05/15 12:13:54;;;;;;;0.30;0.00;;;;;;;;;;4968172;28;20030;-79
2022/05/15 12:16:33;;;;;;;0.40;0.13;;;;;;;;;;4984752;28;20486;-77
2022/05/15 12:19:35;;;;;;;0.00;0.00;;;;;;;;;;4979705;28;20038;-80
2022/05/15 12:22:04;;;;;;;0.68;0.03;;;;;;;;;;4961823;28;20110;-77
2022/05/15 12:24:33;;;;;;;0.20;0.10;;;;;;;;;;4985798;28;20035;-78
2022/05/15 12:27:10;;;;;;;1.65;0.43;;;;;;;;;;4967842;28;20520;-77
2022/05/15 12:29:54;;;;;;;0.80;0.40;;;;;;;;;;4980601;28;20046;-78
2022/05/15 12:32:30;;;;;;;0.60;0.10;;;;;;;;;;5000445;28;20445;-80
2022/05/15 12:34:55;;;;;;;0.52;0.30;;;;;;;;;;4985076;28;20034;-80
2022/05/15 12:37:24;;;;;;;0.45;0.20;;;;;;;;;;4984114;28;20815;-79
2022/05/15 12:39:51;;;;;;;0.10;0.00;;;;;;;;;;4982150;28;20168;-80
2022/05/15 12:42:21;;;;;;;0.05;0.03;;;;;;;;;;4982671;28;20392;-80
2022/05/15 12:44:46;;;;;;;0.75;0.22;;;;;;;;;;4985090;28;20059;-80
2022/05/15 12:47:24;;;;;;;0.08;0.00;;;;;;;;;;4967688;28;20419;-81
2022/05/15 12:49:58;;;;;;;0.32;0.20;;;;;;;;;;4985148;28;20062;-80
2022/05/15 12:52:30;;;;;;;1.38;0.13;;;;;;;;;;4984511;28;20030;-80
2022/05/15 12:55:07;;;;;;;0.63;0.30;;;;;;;;;;4985604;28;20076;-82
2022/05/15 12:57:41;;;;;;;;;;;;;;;;;;4968145;28;20034;-81
2022/05/15 13:00:12;;;;;;;0.43;0.17;;;;;;;;;;4984702;28;20004;-81
2022/05/15 13:02:38;;;;;;;0.95;0.20;;;;;;;;;;4984848;28;20038;-81
2022/05/15 13:05:26;;;;;;;0.25;0.10;;;;;;;;;;4968786;28;20045;-81
2022/05/15 13:07:56;;;;;;;0.30;0.10;;;;;;;;;;4982944;28;20794;-79
2022/05/15 13:10:23;;;;;;;0.20;0.10;;;;;;;;;;4968777;28;20521;-82
2022/05/15 13:13:30;;;;;;;0.37;0.20;;;;;;;;;;4985605;28;20066;-82
2022/05/15 13:15:58;;;;;;;0.20;0.10;;;;;;;;;;4959240;28;20069;-81
2022/05/15 13:18:26;;;;;;;0.15;0.08;;;;;;;;;;4968170;28;20517;-84
2022/05/15 13:21:01;;;;;;;0.00;0.00;;;;;;;;;;4968290;28;20509;-82
2022/05/15 13:23:30;;;;;;;0.00;0.00;;;;;;;;;;4969400;28;20540;-82
2022/05/15 13:25:56;;;;;;;0.63;0.40;;;;;;;;;;4983424;28;20069;-76
2022/05/15 13:28:22;;;;;;;0.05;0.00;;;;;;;;;;4967260;28;20065;-77
2022/05/15 13:30:47;;;;;;;0.20;0.17;;;;;;;;;;4967296;28;20038;-81
2022/05/15 13:33:18;;;;;;;0.45;0.10;;;;;;;;;;4984260;28;20046;-83
2022/05/15 13:35:51;;;;;;;0.00;0.00;;;;;;;;;;4983617;28;20413;-82
2022/05/15 13:38:29;;;;;;;0.15;0.10;;;;;;;;;;4973387;28;20061;-81
2022/05/15 13:44:03;;;;;;;0.10;0.00;;;;;;;;;;4981921;28;19924;-82
2022/05/15 13:46:43;;;;;;;0.15;0.10;;;;;;;;;;4962368;28;20133;-83
2022/05/15 13:49:11;;;;;;;0.68;0.30;;;;;;;;;;4987015;28;20421;-84
2022/05/15 13:51:45;;;;;;;2.90;0.60;;;;;;;;;;4972253;28;20502;-83
2022/05/15 13:54:15;;;;;;;0.15;0.05;;;;;;;;;;4987884;28;20158;-84
2022/05/15 13:56:43;;;;;;;0.35;0.10;;;;;;;;;;4988955;28;20039;-83
2022/05/15 13:59:40;;;;;;;0.00;0.00;;;;;;;;;;4987707;28;20038;-82
2022/05/15 14:02:18;;;;;;;0.00;0.00;;;;;;;;;;5002486;28;20065;-81
2022/05/15 14:04:54;;;;;;;0.50;0.17;;;;;;;;;;4987892;28;20133;-82
2022/05/15 14:07:35;;;;;;;0.63;0.38;;;;;;;;;;4980521;28;20033;-81
2022/05/15 14:10:40;;;;;;;0.15;0.05;;;;;;;;;;4971763;28;20556;-83
2022/05/15 14:13:08;;;;;;;0.00;0.00;;;;;;;;;;4873434;29;20047;-82
2022/05/15 14:15:38;;;;;;;0.08;0.00;;;;;;;;;;4867636;29;20047;-81
2022/05/15 14:18:27;;;;;;;0.22;0.20;;;;;;;;;;4874087;29;20044;-80
2022/05/15 14:21:05;;;;;;;0.90;0.38;;;;;;;;;;4875010;29;20048;-80
2022/05/15 14:23:31;;;;;;;0.20;0.10;;;;;;;;;;4874499;29;20037;-80
2022/05/15 14:25:57;;;;;;;1.00;0.52;;;;;;;;;;4874800;29;21188;-81
2022/05/15 14:28:22;;;;;;;0.28;0.10;;;;;;;;;;4870400;29;20259;-86
2022/05/15 14:30:48;;;;;;;0.20;0.10;;;;;;;;;;4859405;29;20075;-82
2022/05/15 14:33:19;;;;;;;0.60;0.20;;;;;;;;;;4853202;29;20045;-82
2022/05/15 14:36:06;;;;;;;0.30;0.20;;;;;;;;;;4872055;29;20041;-80
2022/05/15 14:38:32;;;;;;;0.32;0.10;;;;;;;;;;4877913;29;20104;-80
2022/05/15 14:40:58;;;;;;;0.50;0.10;;;;;;;;;;4856956;29;20131;-79
2022/05/15 14:43:24;;;;;;;0.20;0.10;;;;;;;;;;4873754;29;20127;-79
2022/05/15 14:45:52;;;;;;;0.00;0.00;;;;;;;;;;4868363;29;20489;-79
2022/05/15 14:48:20;;;;;;;0.22;0.10;;;;;;;;;;4871181;29;20047;-78
2022/05/15 14:50:45;;;;;;;0.20;0.08;;;;;;;;;;4942330;28;20046;-78
2022/05/15 14:53:11;;;;;;;0.05;0.00;;;;;;;;;;4986652;28;20476;-79
2022/05/15 14:58:21;;;;;;;1.98;0.45;;;;;;;;;;4985242;28;20041;-79
2022/05/15 15:00:46;;;;;;;0.10;0.00;;;;;;;;;;4970288;28;20031;-78
2022/05/15 15:03:11;;;;;;;0.00;0.00;;;;;;;;;;4970572;28;20397;-79
2022/05/15 15:05:50;;;;;;;0.30;0.08;;;;;;;;;;4971583;28;20046;-79
2022/05/15 15:08:17;;;;;;;0.75;0.20;;;;;;;;;;4972421;28;20030;-79
2022/05/15 15:10:43;;;;;;;0.35;0.20;;;;;;;;;;4970909;28;20040;-79
2022/05/15 15:13:09;;;;;;;0.75;0.32;;;;;;;;;;4971128;28;20115;-79
2022/05/15 15:15:37;;;;;;;0.30;0.13;;;;;;;;;;4970751;28;20034;-76
2022/05/15 15:18:02;;;;;;;0.75;0.43;;;;;;;;;;4969917;28;20034;-80
2022/05/15 15:20:27;;;;;;;0.22;0.10;;;;;;;;;;4972305;28;20042;-79
2022/05/15 15:22:53;;;;;;;0.10;0.05;;;;;;;;;;4984992;28;20037;-80
2022/05/15 15:25:18;;;;;;;0.10;0.10;;;;;;;;;;4969305;28;20565;-80